Share

Tolhuin, Argentina

Ushuaia International Malvine Island (SAWH) Elev 69 ft | 54.84 °S, 68.31 °W | Change Station

Current weather conditions updated 1 hour ago

Scattered Clouds
Scattered Clouds
36 °F
Feels Like 22 °F
N
36
Wind Variable Wind from SW
Gusts 50 mph
Sunrise 8:27 AM
Sunset 6:28 PM
Moon Waning Gibbous

Today is forecast to be nearly the same temperature as yesterday. Light snow.

Pressure 29.65 in
Visibility 6.2 miles
Clouds Scattered Clouds 4000 ft
Scattered Clouds 9000 ft
Windchill 22 °F
Dew Point 30 °F
Humidity 81%
Rainfall 0.00 in
Snow Depth Not available.
UV 0 out of 16
Pollen Not available.
Air Quality Not available.
Flu Activity Not available.
METAR SAWH 190500Z 23031G43KT 9999 VCSH SCT040 SCT090 02/M01 Q1004

More Conditions Fewer Conditions

Pressure 29.65 in
Visibility 6.2 miles
Clouds Scattered Clouds 4000 ft
Scattered Clouds 9000 ft
Windchill 22 °F
Dew Point 30 °F
Humidity 81%
Rainfall 0.00 in
Snow Depth Not available.
UV 0 out of 16
Pollen Not available.
Air Quality Not available.
Flu Activity Not available.
METAR SAWH 190500Z 23031G43KT 9999 VCSH SCT040 SCT090 02/M01 Q1004

More Conditions Fewer Conditions

10-Day Weather Forecast

Almanac

Astronomy

Apr. 19, 2014 Rise Set
Actual Time 8:27 AM ART 6:28 PM ART
Civil Twilight 7:50 AM ART 7:05 PM ART
Nautical Twilight 7:08 AM ART 7:46 PM ART
Astronomical Twilight 6:26 AM ART 8:28 PM ART
Moon 9:41 PM ART 1:09 PM ART
Length of Visible Light 11h 14m
Length of Day
10h 00m
Tomorrow will be 4m 10s shorter.
Waning Gibbous, 82% of the Moon is Illuminated
Today
Waning Gibbous
Apr 22
Last Quarter
Apr 29
New
May 6
First Quarter
May 14
Full

Yesterday's Extremes

Country Highs Country Lows

Community

  • Sunset Silhouettes
    Sunset Silhouettes
  • FL sunset Perico Isle
    FL sunset Perico Isle
  • Cloudy spring view
    Cloudy spring view
  • Old barn
    Old barn
  • What's for Lunch?
    What's for Lunch?

WunderPhotos

Upload Photos

1,702,653 photos uploaded!

WunderBlogs® & News

Nearby

Snow Depth

Not available.

Coastal Water Temperatures

Place Temperature
No Stations Reporting

Earthquake Activity

City Distance Mag. Time & Date
No recent earthquake activity has been reported nearby.
Minimum magnitude displayed is 2.5.

Nearby Weather Stations

There are no personal weather stations in this area.

What do you think?

We're not finished. Please let us know what you like, what you don't like, and what you are still missing.